Galt, MO

1:02 PM CDT on September 20, 2014 (GMT -0500)
Lamoni Municipal | Change Station
CLOSE
Current Station
Airport
Location: Lamoni,
Elevation: 1132 ft
Nearby Weather Stations

Elev 1132 ft 40.63 °N, 93.90 °W | Updated 9 minutes ago

Mostly Cloudy
Mostly Cloudy
75 °F
Feels Like 75 °F
N
13
Wind Variable Wind from West

Today
High -- | Low -- °F
--% Chance of Precip.
Yesterday
High -- | Low -- °F
Precip. -- in
6:59 AM 7:14 PM
Waning Crescent, 11% visible
Pressure 29.91 in
Visibility 10.0 miles
Clouds Mostly Cloudy 1300 ft
Dew Point 69 °F
Humidity 82%
Rainfall 0.03 in
Snow Depth Not available.
UV 4 out of 12
Pollen 6.50 out of 12
Air Quality Not available.
Flu Activity Not available.
METAR KLWD 201753Z AUTO 26011KT 10SM BKN013 24/21 A2993 RMK AO2 SLP129 60003 T02390206 10239 20189 56007

More Conditions Fewer Conditions

Pressure 29.91 in
Visibility 10.0 miles
Clouds Mostly Cloudy 1300 ft
Dew Point 69 °F
Humidity 82%
Rainfall 0.03 in
Snow Depth Not available.
UV 4 out of 12
Pollen 6.50 out of 12
Air Quality Not available.
Flu Activity Not available.
METAR KLWD 201753Z AUTO 26011KT 10SM BKN013 24/21 A2993 RMK AO2 SLP129 60003 T02390206 10239 20189 56007

More Conditions Fewer Conditions

10-Day Weather Forecast

Almanac

Astronomy

Sep. 20, 2014 Rise Set
Actual Time 6:59 AM CDT 7:14 PM CDT
Civil Twilight 6:32 AM CDT 7:41 PM CDT
Nautical Twilight 6:00 AM CDT 8:12 PM CDT
Astronomical Twilight 5:27 AM CDT 8:45 PM CDT
Moon 3:38 AM CDT 5:17 PM CDT
Length of Visible Light 13h 08m
Length of Day
12h 14m
Tomorrow will be 2m 38s shorter.
Waning Crescent, 11% of the Moon is Illuminated
Today
Waning Crescent
Sep 24
New
Oct 1
First Quarter
Oct 8
Full
Oct 15
Last Quarter

Today's Extremes

State Highs State Lows

Community

WunderPhotos

Upload Photos

1,754,921 photos uploaded!

WunderBlogs® & News

Nearby

Snow Depth

Station Depth Elevation
No new snow has been reported.

Earthquake Activity

City Distance Mag. Time & Date
No recent earthquake activity has been reported nearby.
Minimum magnitude displayed is 2.5.

Coastal Water Temperatures

Place Temperature
No Stations Reporting

Nearby Weather Stations